Time;durP1;ratioP1;P1;durP2;ratioP2;P2;SDS_P1;SDS_P2;PMS_P1;PMS_P2;Temp;Humidity;BMP_temperature;BMP_pressure;BME280_temperature;BME280_humidity;BME280_pressure;Samples;Min_cycle;Max_cycle;Signal;HPM_P1;HPM_P2
2022/10/25 00:01:52;;;;;;;20.67;9.88;;;;;;;11.94;71.11;100487.69;5087204;28;20036;-26
2022/10/25 00:04:18;;;;;;;22.00;10.38;;;;;;;12.15;71.08;100489.16;5087157;28;20400;-28
2022/10/25 00:06:43;;;;;;;23.27;10.65;;;;;;;11.89;72.27;100474.19;5085703;28;20024;-26
2022/10/25 00:09:09;;;;;;;18.73;10.02;;;;;;;12.13;72.17;100490.44;5087667;28;20032;-30
2022/10/25 00:11:35;;;;;;;23.40;11.60;;;;;;;12.34;71.50;100481.19;5069177;28;20040;-28
2022/10/25 00:14:04;;;;;;;22.05;10.65;;;;;;;12.41;70.50;100461.38;5069154;28;20445;-26
2022/10/25 00:16:33;;;;;;;19.60;11.63;;;;;;;12.22;71.48;100468.56;5087318;28;20039;-26
2022/10/25 00:18:58;;;;;;;22.70;12.35;;;;;;;12.49;71.12;100475.50;5087270;28;20085;-25
2022/10/25 00:21:24;;;;;;;22.17;12.90;;;;;;;12.41;71.88;100471.25;5068949;28;20038;-28
2022/10/25 00:23:51;;;;;;;22.95;11.73;;;;;;;12.22;72.45;100476.56;5069049;28;20404;-27
2022/10/25 00:26:17;;;;;;;24.70;12.85;;;;;;;11.49;75.02;100477.09;5086901;28;20051;-25
2022/10/25 00:28:42;;;;;;;21.65;12.25;;;;;;;11.70;74.28;100475.09;5087220;28;20131;-27
2022/10/25 00:31:14;;;;;;;18.83;10.88;;;;;;;11.82;73.04;100470.69;5069036;28;20127;-26
2022/10/25 00:33:40;;;;;;;22.77;10.75;;;;;;;11.75;73.06;100457.41;5087103;28;20052;-27
2022/10/25 00:36:12;;;;;;;25.17;12.93;;;;;;;12.08;71.62;100471.56;5086237;28;20044;-26
2022/10/25 00:38:38;;;;;;;25.63;12.00;;;;;;;12.02;71.95;100452.69;5087017;28;20036;-28
2022/10/25 00:41:05;;;;;;;20.52;11.70;;;;;;;12.27;71.72;100470.56;5087261;28;20548;-29
2022/10/25 00:43:55;;;;;;;25.40;12.50;;;;;;;12.30;71.28;100462.13;5087326;28;20085;-26
2022/10/25 00:46:26;;;;;;;22.88;11.82;;;;;;;12.18;71.89;100461.19;5086325;28;20102;-26
2022/10/25 00:49:09;;;;;;;23.27;12.07;;;;;;;12.00;72.50;100469.97;5087268;28;20032;-25
2022/10/25 00:51:44;;;;;;;21.92;11.20;;;;;;;12.00;72.41;100451.28;5070986;28;20836;-25
2022/10/25 00:54:14;;;;;;;24.13;10.82;;;;;;;11.66;72.86;100454.16;5086853;28;20607;-26
2022/10/25 00:56:42;;;;;;;26.13;12.65;;;;;;;11.54;73.56;100449.72;5086656;28;20024;-29
2022/10/25 00:59:13;;;;;;;24.83;12.20;;;;;;;11.91;72.78;100472.13;5086948;28;20024;-26
2022/10/25 01:01:40;;;;;;;25.40;12.02;;;;;;;12.12;72.39;100472.75;5087125;28;20102;-24
2022/10/25 01:04:10;;;;;;;26.67;12.25;;;;;;;12.11;72.98;100468.44;5086972;28;20040;-26
2022/10/25 01:06:46;;;;;;;19.98;10.77;;;;;;;11.85;73.30;100446.22;5086543;28;20470;-27
2022/10/25 01:09:16;;;;;;;21.77;11.65;;;;;;;12.09;72.34;100457.16;5086658;28;20028;-25
2022/10/25 01:11:41;;;;;;;28.88;13.13;;;;;;;11.92;73.14;100455.03;5087249;28;20034;-28
2022/10/25 01:14:11;;;;;;;23.02;11.35;;;;;;;11.39;74.80;100463.38;5086714;28;20028;-27
2022/10/25 01:16:58;;;;;;;23.90;11.10;;;;;;;11.07;75.27;100455.31;5086460;28;20020;-26
2022/10/25 01:19:43;;;;;;;19.83;10.18;;;;;;;11.55;72.64;100452.19;5086728;28;20522;-26
2022/10/25 01:22:11;;;;;;;20.83;10.05;;;;;;;10.75;75.33;100446.44;5086881;28;20024;-25
2022/10/25 01:24:53;;;;;;;22.48;9.70;;;;;;;10.77;72.14;100429.19;5086373;28;20060;-25
2022/10/25 01:27:33;;;;;;;21.50;10.07;;;;;;;11.19;71.87;100453.63;5086642;28;20559;-30
2022/10/25 01:30:07;;;;;;;21.98;10.27;;;;;;;10.97;72.57;100431.78;5086560;28;20797;-25
2022/10/25 01:32:53;;;;;;;32.17;13.43;;;;;;;11.18;74.52;100454.66;5086574;28;20097;-26
2022/10/25 01:35:25;;;;;;;21.90;9.98;;;;;;;11.02;73.96;100449.81;5086766;28;20024;-26
2022/10/25 01:38:18;;;;;;;18.88;9.90;;;;;;;10.66;73.42;100445.81;5086444;28;20089;-26
2022/10/25 01:41:15;;;;;;;18.13;8.88;;;;;;;10.29;75.05;100450.81;5086817;28;20039;-26
2022/10/25 01:44:09;;;;;;;25.60;11.75;;;;;;;10.93;73.05;100441.22;5085201;28;20059;-26
2022/10/25 01:47:17;;;;;;;23.50;9.95;;;;;;;10.74;72.52;100450.94;5087064;28;20236;-27
2022/10/25 01:49:51;;;;;;;24.02;11.60;;;;;;;10.95;72.87;100451.66;5007416;28;20037;-26
2022/10/25 01:52:21;;;;;;;25.73;11.50;;;;;;;10.72;72.42;100436.97;5006956;28;20041;-27
2022/10/25 01:54:48;;;;;;;23.10;11.80;;;;;;;10.86;71.82;100454.59;5054716;28;20040;-25
2022/10/25 01:57:38;;;;;;;25.52;11.43;;;;;;;10.54;72.54;100464.34;5089774;28;20027;-26
2022/10/25 02:00:16;;;;;;;31.83;12.20;;;;;;;10.80;71.87;100449.28;5090011;28;20020;-25
2022/10/25 02:02:50;;;;;;;39.00;15.63;;;;;;;11.04;72.47;100455.75;5089886;28;20296;-27
2022/10/25 02:05:34;;;;;;;32.78;15.27;;;;;;;11.02;73.27;100457.81;5089857;28;20055;-29
2022/10/25 02:08:30;;;;;;;33.30;12.85;;;;;;;10.66;74.16;100448.50;5090019;28;20028;-29
2022/10/25 02:11:18;;;;;;;25.73;11.07;;;;;;;10.84;74.03;100453.16;5090216;28;20036;-26
2022/10/25 02:13:55;;;;;;;19.70;11.95;;;;;;;10.47;75.23;100417.38;5089578;28;20031;-25
2022/10/25 02:16:31;;;;;;;20.45;10.15;;;;;;;10.22;76.14;100421.50;5089202;28;20461;-26
2022/10/25 02:19:05;;;;;;;22.15;10.32;;;;;;;9.93;76.83;100425.44;5089772;28;20028;-25
2022/10/25 02:21:33;;;;;;;17.45;9.25;;;;;;;9.99;75.42;100411.28;5089613;28;20555;-25
2022/10/25 02:24:05;;;;;;;17.08;9.10;;;;;;;10.26;75.07;100428.06;5089845;28;20146;-26
2022/10/25 02:26:32;;;;;;;19.27;10.25;;;;;;;10.48;74.67;100432.34;5089566;28;20044;-26
2022/10/25 02:29:01;;;;;;;20.67;11.02;;;;;;;10.73;74.62;100443.97;5090029;28;20032;-26
2022/10/25 02:31:27;;;;;;;30.05;12.35;;;;;;;10.78;74.63;100422.00;5089221;28;20096;-25
2022/10/25 02:33:53;;;;;;;27.10;13.75;;;;;;;10.94;74.82;100456.19;5089380;28;20032;-27
2022/10/25 02:36:21;;;;;;;27.00;12.15;;;;;;;10.32;77.25;100449.59;5089019;28;20030;-31
2022/10/25 02:38:48;;;;;;;24.38;12.52;;;;;;;10.21;77.88;100445.69;5070805;28;20039;-26
2022/10/25 02:41:15;;;;;;;22.25;10.35;;;;;;;10.31;77.03;100451.44;5071147;28;20059;-26
2022/10/25 02:43:41;;;;;;;26.63;10.93;;;;;;;10.23;76.85;100447.13;5089056;28;20036;-28
2022/10/25 02:46:15;;;;;;;21.73;10.50;;;;;;;10.37;76.82;100455.13;5089012;28;20032;-26
2022/10/25 02:48:41;;;;;;;20.23;9.77;;;;;;;10.08;78.44;100435.06;5089543;28;20030;-26
2022/10/25 02:51:08;;;;;;;21.92;11.10;;;;;;;10.23;77.65;100422.31;5089007;28;20576;-28
2022/10/25 02:53:34;;;;;;;21.07;11.33;;;;;;;10.67;76.03;100439.47;5088902;28;20105;-26
2022/10/25 02:56:01;;;;;;;20.73;11.88;;;;;;;10.80;75.22;100443.94;5088939;28;20024;-25
2022/10/25 02:58:29;;;;;;;27.55;13.27;;;;;;;11.02;74.73;100439.13;5087575;28;20047;-27
2022/10/25 03:00:55;;;;;;;22.15;11.93;;;;;;;10.91;74.66;100439.78;5089011;28;20028;-26
2022/10/25 03:03:20;;;;;;;24.70;12.40;;;;;;;10.81;74.75;100457.06;5088649;28;20032;-25
2022/10/25 03:05:45;;;;;;;23.27;12.93;;;;;;;10.65;75.31;100441.53;5088775;28;20056;-25
2022/10/25 03:08:11;;;;;;;30.05;14.43;;;;;;;10.57;76.00;100421.25;5088777;28;20056;-27
2022/10/25 03:10:36;;;;;;;27.55;13.50;;;;;;;11.02;74.67;100439.94;5088391;28;20465;-27
2022/10/25 03:13:02;;;;;;;28.45;13.65;;;;;;;10.99;74.53;100439.53;5088856;28;20476;-26
2022/10/25 03:15:27;;;;;;;29.75;13.93;;;;;;;10.87;74.79;100423.41;5088528;28;20032;-26
2022/10/25 03:17:53;;;;;;;31.92;14.45;;;;;;;10.68;75.72;100418.94;5070288;28;20054;-25
2022/10/25 03:20:18;;;;;;;27.73;12.43;;;;;;;11.00;74.69;100434.00;5087970;28;20020;-28
2022/10/25 03:22:44;;;;;;;24.15;12.13;;;;;;;10.73;75.31;100417.28;5088714;28;20655;-27
2022/10/25 03:25:09;;;;;;;26.13;12.63;;;;;;;10.78;75.01;100420.13;5088171;28;20024;-27
2022/10/25 03:27:35;;;;;;;25.92;11.88;;;;;;;11.15;73.61;100433.72;5070038;28;20599;-25
2022/10/25 03:30:00;;;;;;;30.38;13.80;;;;;;;10.99;73.94;100431.53;5088341;28;20032;-26
2022/10/25 03:32:26;;;;;;;23.95;12.07;;;;;;;10.91;73.94;100429.13;5068402;28;20090;-26
2022/10/25 03:34:51;;;;;;;28.67;13.18;;;;;;;10.57;76.24;100441.75;5088214;28;20032;-26
2022/10/25 03:37:16;;;;;;;24.95;11.38;;;;;;;10.55;74.30;100417.97;5069639;28;20028;-27
2022/10/25 03:39:42;;;;;;;28.80;15.35;;;;;;;10.03;74.95;100433.84;5088191;28;20107;-27
2022/10/25 03:42:07;;;;;;;36.03;14.75;;;;;;;9.93;75.03;100436.09;5087971;28;20031;-26
2022/10/25 03:44:33;;;;;;;33.10;14.55;;;;;;;10.04;74.57;100432.78;5087817;28;20028;-28
2022/10/25 03:46:58;;;;;;;27.00;13.60;;;;;;;10.02;75.01;100429.50;5086308;28;20727;-25
2022/10/25 03:49:25;;;;;;;39.17;15.40;;;;;;;10.21;75.38;100425.19;5087693;28;20035;-26
2022/10/25 03:51:50;;;;;;;33.88;14.85;;;;;;;9.73;76.76;100424.63;5087662;28;20028;-25
2022/10/25 03:54:15;;;;;;;27.92;13.57;;;;;;;10.03;76.44;100417.84;5069381;28;20411;-26
2022/10/25 03:56:41;;;;;;;32.70;14.20;;;;;;;9.88;75.92;100401.25;5069420;28;20484;-25
2022/10/25 03:59:06;;;;;;;33.22;14.82;;;;;;;10.17;75.22;100428.47;5087731;28;20523;-25
2022/10/25 04:01:32;;;;;;;40.92;17.73;;;;;;;9.83;76.72;100417.84;5087997;28;20546;-25
2022/10/25 04:03:57;;;;;;;46.67;17.65;;;;;;;9.77;77.55;100417.84;5087412;28;20411;-26
2022/10/25 04:06:23;;;;;;;33.63;17.55;;;;;;;9.65;78.05;100399.00;5087311;28;20731;-30
2022/10/25 04:08:48;;;;;;;36.13;16.70;;;;;;;9.83;77.94;100409.03;5087692;28;20519;-26
2022/10/25 04:11:13;;;;;;;32.80;16.63;;;;;;;9.91;77.43;100397.34;5087353;28;20035;-25
2022/10/25 04:13:39;;;;;;;36.85;16.20;;;;;;;9.84;77.33;100397.34;5087971;28;20411;-26
2022/10/25 04:16:06;;;;;;;32.85;15.50;;;;;;;9.99;76.44;100395.31;5068891;28;20427;-26
2022/10/25 04:18:31;;;;;;;30.27;15.47;;;;;;;10.10;75.87;100387.72;5087362;28;20028;-27
2022/10/25 04:20:57;;;;;;;32.50;14.30;;;;;;;10.34;75.21;100411.06;5087317;28;20038;-27
2022/10/25 04:23:22;;;;;;;29.20;14.52;;;;;;;10.37;75.40;100402.63;5087895;28;20065;-28
2022/10/25 04:25:48;;;;;;;28.58;14.98;;;;;;;9.96;76.94;100401.03;5087180;28;20032;-26
2022/10/25 04:28:14;;;;;;;33.20;14.98;;;;;;;9.57;78.01;100385.88;5087288;28;20024;-25
2022/10/25 04:30:40;;;;;;;33.72;13.85;;;;;;;9.71;77.37;100386.72;5086973;28;20036;-25
2022/10/25 04:33:05;;;;;;;25.42;13.05;;;;;;;9.86;77.18;100395.31;5087022;28;20060;-26
2022/10/25 04:35:31;;;;;;;27.98;12.45;;;;;;;10.09;76.76;100405.50;5087418;28;20036;-27
2022/10/25 04:37:57;;;;;;;33.05;13.23;;;;;;;10.11;77.22;100405.31;5087395;28;20475;-25
2022/10/25 04:40:23;;;;;;;28.75;12.95;;;;;;;10.25;76.36;100409.59;5087181;28;20034;-26
2022/10/25 04:42:49;;;;;;;21.27;11.75;;;;;;;10.18;76.03;100384.81;5086920;28;20465;-26
2022/10/25 04:45:14;;;;;;;20.15;11.95;;;;;;;10.26;75.60;100384.59;5086977;28;20024;-26
2022/10/25 04:47:40;;;;;;;26.30;10.60;;;;;;;10.12;76.67;100404.31;5068714;28;20020;-28
2022/10/25 04:50:06;;;;;;;19.20;10.50;;;;;;;9.72;78.83;100409.66;5085307;28;20593;-24
2022/10/25 04:52:31;;;;;;;21.48;10.00;;;;;;;9.86;78.55;100390.78;5086554;28;20031;-28
2022/10/25 04:54:57;;;;;;;23.55;10.27;;;;;;;9.84;78.09;100392.03;5068503;28;20032;-26
2022/10/25 04:57:23;;;;;;;22.48;10.43;;;;;;;10.20;76.85;100402.22;5087104;28;20086;-25
2022/10/25 04:59:49;;;;;;;21.60;9.88;;;;;;;9.59;79.01;100395.31;5085318;28;20473;-28
2022/10/25 05:02:14;;;;;;;17.33;9.70;;;;;;;9.24;80.03;100387.47;5086662;28;20066;-26
2022/10/25 05:04:40;;;;;;;17.15;9.45;;;;;;;9.37;79.63;100386.69;5086594;28;20557;-28
2022/10/25 05:07:06;;;;;;;27.55;10.80;;;;;;;9.77;77.63;100396.56;5086951;28;20107;-30
2022/10/25 05:09:31;;;;;;;41.40;15.95;;;;;;;9.36;76.95;100392.22;5087024;28;20028;-29
2022/10/25 05:11:57;;;;;;;34.83;15.68;;;;;;;9.64;75.61;100406.19;5086873;28;20077;-30
2022/10/25 05:14:22;;;;;;;32.85;13.82;;;;;;;9.88;74.19;100409.22;5086513;28;20061;-27
2022/10/25 05:16:47;;;;;;;22.75;10.75;;;;;;;9.60;73.61;100396.97;5086670;28;20027;-26
2022/10/25 05:19:13;;;;;;;20.55;10.27;;;;;;;9.20;76.08;100417.38;5068340;28;20024;-26
2022/10/25 05:21:38;;;;;;;26.27;13.88;;;;;;;9.25;76.69;100415.75;5087765;28;20662;-25
2022/10/25 05:24:04;;;;;;;32.05;17.63;;;;;;;9.61;75.85;100427.88;5089253;28;20114;-26
2022/10/25 05:26:30;;;;;;;20.65;12.65;;;;;;;9.61;76.06;100432.38;5090632;28;20058;-28
2022/10/25 05:28:56;;;;;;;18.75;10.57;;;;;;;9.44;76.37;100413.31;5089150;28;20396;-25
2022/10/25 05:31:28;;;;;;;18.13;9.55;;;;;;;9.28;77.94;100429.69;5072257;28;20028;-27
2022/10/25 05:33:56;;;;;;;19.92;9.98;;;;;;;9.65;76.25;100423.78;5090325;28;20483;-25
2022/10/25 05:36:22;;;;;;;18.88;10.52;;;;;;;9.61;76.37;100432.38;5090608;28;20032;-26
2022/10/25 05:38:47;;;;;;;22.08;11.18;;;;;;;9.49;78.46;100448.13;5090392;28;20042;-26
2022/10/25 05:41:14;;;;;;;18.35;10.80;;;;;;;9.79;77.02;100437.13;5090478;28;20380;-29
2022/10/25 05:43:41;;;;;;;29.05;13.18;;;;;;;9.93;76.50;100460.06;5090328;28;20036;-26
2022/10/25 05:46:10;;;;;;;22.25;12.68;;;;;;;9.61;77.68;100425.22;5090220;28;20055;-26
2022/10/25 05:48:36;;;;;;;22.60;12.38;;;;;;;10.03;77.28;100449.81;5090043;28;20089;-26
2022/10/25 05:51:12;;;;;;;18.00;11.77;;;;;;;10.04;77.19;100456.78;5090407;28;20024;-25
2022/10/25 05:53:42;;;;;;;22.88;12.25;;;;;;;10.11;77.53;100440.78;5071774;28;20024;-25
2022/10/25 05:56:07;;;;;;;22.40;12.55;;;;;;;10.35;77.55;100447.34;5090125;28;20066;-25
2022/10/25 05:58:33;;;;;;;19.52;11.45;;;;;;;10.35;78.48;100468.66;5089652;28;20406;-31
2022/10/25 06:00:59;;;;;;;25.63;10.98;;;;;;;10.51;78.30;100455.94;5088388;28;20594;-25
2022/10/25 06:03:25;;;;;;;25.13;11.82;;;;;;;10.77;77.95;100447.03;5071728;28;20048;-27
2022/10/25 06:05:51;;;;;;;20.42;10.93;;;;;;;11.13;76.16;100465.16;5089927;28;20523;-25
2022/10/25 06:08:16;;;;;;;19.50;11.18;;;;;;;11.16;76.68;100463.91;5089803;28;20829;-30
2022/10/25 06:10:41;;;;;;;19.23;10.13;;;;;;;11.52;75.74;100467.81;5089830;28;20041;-26
2022/10/25 06:13:07;;;;;;;17.45;10.38;;;;;;;11.70;75.17;100469.75;5089651;28;20020;-29
2022/10/25 06:15:32;;;;;;;20.05;11.52;;;;;;;11.79;74.97;100471.13;5089773;28;20035;-27
2022/10/25 06:17:58;;;;;;;23.25;12.23;;;;;;;11.90;73.54;100454.44;5089651;28;20031;-25
2022/10/25 06:20:23;;;;;;;21.48;12.52;;;;;;;12.03;73.58;100481.06;5089535;28;20024;-28
2022/10/25 06:22:48;;;;;;;20.00;12.00;;;;;;;11.88;73.63;100459.13;5089636;28;20675;-28
2022/10/25 06:25:14;;;;;;;19.08;11.93;;;;;;;11.97;74.63;100476.59;5089587;28;20028;-25
2022/10/25 06:27:39;;;;;;;26.05;14.23;;;;;;;12.26;73.99;100474.28;5089564;28;20050;-26
2022/10/25 06:30:05;;;;;;;25.67;15.18;;;;;;;12.29;74.18;100479.19;5070948;28;20055;-26
2022/10/25 06:32:31;;;;;;;25.85;14.52;;;;;;;12.40;74.10;100458.91;5087737;28;20024;-30
2022/10/25 06:34:56;;;;;;;21.90;13.07;;;;;;;12.54;74.32;100465.75;5089812;28;20407;-26
2022/10/25 06:37:22;;;;;;;25.60;13.20;;;;;;;12.78;73.85;100480.13;5089326;28;20679;-26
2022/10/25 06:39:47;;;;;;;22.30;13.23;;;;;;;12.81;74.03;100466.31;5089403;28;20032;-27
2022/10/25 06:42:12;;;;;;;24.52;13.15;;;;;;;13.03;73.86;100473.84;5088948;28;20070;-25
2022/10/25 06:44:38;;;;;;;24.80;13.07;;;;;;;13.21;73.55;100481.88;5089020;28;20144;-25
2022/10/25 06:47:03;;;;;;;27.55;14.23;;;;;;;13.26;73.10;100451.75;5089346;28;20066;-27
2022/10/25 06:49:29;;;;;;;25.55;13.48;;;;;;;13.52;73.06;100477.34;5089694;28;20454;-25
2022/10/25 06:51:54;;;;;;;22.38;12.75;;;;;;;13.53;72.62;100462.13;5089076;28;20032;-27
2022/10/25 06:54:20;;;;;;;24.13;13.10;;;;;;;13.84;72.30;100466.38;5087326;28;20032;-25
2022/10/25 06:56:45;;;;;;;26.45;12.77;;;;;;;13.99;71.16;100456.00;5087351;28;20081;-28
2022/10/25 06:59:11;;;;;;;21.63;11.77;;;;;;;13.99;71.34;100447.97;5088667;28;20384;-25
2022/10/25 07:01:36;;;;;;;26.13;13.60;;;;;;;14.25;70.80;100480.75;5089075;28;20730;-29
2022/10/25 07:04:02;;;;;;;19.42;11.55;;;;;;;14.53;69.91;100468.50;5088612;28;20044;-28
2022/10/25 07:06:34;;;;;;;21.35;12.00;;;;;;;14.81;69.13;100467.78;5088547;28;20169;-27
2022/10/25 07:09:00;;;;;;;24.40;11.35;;;;;;;14.72;69.19;100453.91;5088646;28;20062;-27
2022/10/25 07:11:28;;;;;;;19.10;11.88;;;;;;;15.09;68.72;100453.56;5088633;28;20046;-26
2022/10/25 07:13:55;;;;;;;24.63;12.18;;;;;;;15.23;67.71;100471.03;5088528;28;20495;-26
2022/10/25 07:16:20;;;;;;;21.10;11.68;;;;;;;15.31;67.66;100466.34;5088300;28;20123;-25
2022/10/25 07:18:47;;;;;;;20.20;11.43;;;;;;;15.76;65.88;100473.63;5088667;28;20118;-27
2022/10/25 07:21:21;;;;;;;22.75;10.73;;;;;;;15.89;65.36;100467.91;5086785;28;20027;-28
2022/10/25 07:23:48;;;;;;;21.60;11.38;;;;;;;15.95;65.12;100466.94;5086940;28;20043;-25
2022/10/25 07:26:22;;;;;;;22.25;10.40;;;;;;;16.15;65.02;100471.03;5069715;28;20189;-27
2022/10/25 07:28:49;;;;;;;19.70;9.30;;;;;;;16.23;63.66;100462.53;5088694;28;20035;-26
2022/10/25 07:31:21;;;;;;;17.27;9.70;;;;;;;16.46;63.93;100465.00;5070067;28;20028;-28
2022/10/25 07:33:48;;;;;;;17.17;9.73;;;;;;;16.47;63.94;100453.19;5070235;28;20423;-26
2022/10/25 07:36:14;;;;;;;21.77;9.80;;;;;;;16.55;63.44;100467.28;5069968;28;20407;-28
2022/10/25 07:38:39;;;;;;;18.88;9.55;;;;;;;16.68;62.97;100442.69;5087976;28;20043;-26
2022/10/25 07:41:05;;;;;;;18.80;9.15;;;;;;;16.97;61.89;100456.00;5088161;28;20024;-26
2022/10/25 07:43:30;;;;;;;18.38;9.02;;;;;;;17.00;61.77;100434.75;5086713;28;20032;-27
2022/10/25 07:45:56;;;;;;;19.95;9.57;;;;;;;17.26;61.04;100448.50;5087527;28;20032;-26
2022/10/25 07:48:22;;;;;;;19.38;9.15;;;;;;;17.36;60.41;100447.78;5087608;28;20377;-27
2022/10/25 07:50:48;;;;;;;23.80;9.05;;;;;;;17.56;59.61;100441.78;5087978;28;20036;-30
2022/10/25 07:53:13;;;;;;;18.60;9.73;;;;;;;17.75;59.26;100447.59;5069432;28;20031;-27
2022/10/25 07:55:39;;;;;;;17.85;8.80;;;;;;;17.40;59.74;100443.50;5087804;28;20028;-27
2022/10/25 07:58:06;;;;;;;19.67;8.77;;;;;;;17.55;59.80;100442.84;5086324;28;20028;-26
2022/10/25 08:00:34;;;;;;;20.20;9.98;;;;;;;17.92;59.04;100424.03;5087562;28;20031;-25
2022/10/25 08:02:59;;;;;;;19.77;9.05;;;;;;;18.10;59.31;100430.09;5087652;28;20043;-25
2022/10/25 08:05:25;;;;;;;21.95;10.00;;;;;;;18.24;57.64;100426.66;5087632;28;20044;-26
2022/10/25 08:07:50;;;;;;;17.73;9.63;;;;;;;18.61;57.16;100427.66;5087332;28;20111;-27
2022/10/25 08:10:19;;;;;;;24.25;9.65;;;;;;;18.50;57.34;100415.19;5068968;28;20040;-30
2022/10/25 08:12:45;;;;;;;17.83;9.02;;;;;;;18.74;56.40;100416.38;5087653;28;20032;-26
2022/10/25 08:15:11;;;;;;;18.90;9.82;;;;;;;18.83;55.49;100422.13;5087677;28;20032;-27
2022/10/25 08:17:36;;;;;;;21.52;9.23;;;;;;;18.94;55.03;100401.34;5087607;28;20024;-26
2022/10/25 08:20:02;;;;;;;18.90;10.05;;;;;;;19.02;54.89;100408.91;5087396;28;20054;-26
2022/10/25 08:22:27;;;;;;;19.13;9.27;;;;;;;19.18;54.00;100418.69;5086968;28;20804;-28
2022/10/25 08:24:52;;;;;;;21.70;10.45;;;;;;;19.60;54.76;100417.66;5087792;28;20136;-26
2022/10/25 08:27:18;;;;;;;21.40;9.48;;;;;;;19.65;52.63;100401.41;5087246;28;20032;-26
2022/10/25 08:29:43;;;;;;;21.67;9.48;;;;;;;19.68;52.22;100400.88;5087150;28;20097;-31
2022/10/25 08:32:09;;;;;;;17.35;8.02;;;;;;;19.82;52.44;100412.00;5085671;28;20538;-31
2022/10/25 08:34:34;;;;;;;25.77;8.90;;;;;;;19.85;51.74;100395.22;5085671;28;20032;-26
2022/10/25 08:36:59;;;;;;;17.67;8.80;;;;;;;19.72;52.08;100414.72;5087074;28;20034;-27
2022/10/25 08:39:25;;;;;;;14.50;7.90;;;;;;;19.76;52.03;100396.84;5087081;28;20024;-27
2022/10/25 08:41:54;;;;;;;19.63;8.43;;;;;;;20.12;51.63;100404.91;5087353;28;20076;-29
2022/10/25 08:44:47;;;;;;;20.10;7.57;;;;;;;20.31;50.55;100396.19;5086699;28;20511;-27
2022/10/25 08:47:40;;;;;;;19.52;9.10;;;;;;;20.36;50.78;100386.16;5086919;28;20419;-25
2022/10/25 08:50:12;;;;;;;18.60;7.38;;;;;;;20.40;49.78;100384.53;5058584;28;20036;-27
2022/10/25 08:53:01;;;;;;;23.00;7.35;;;;;;;20.59;49.25;100370.38;5087100;28;20035;-26
2022/10/25 08:55:40;;;;;;;19.08;7.22;;;;;;;20.91;48.61;100367.25;5068639;28;20020;-26
2022/10/25 08:58:16;;;;;;;18.35;7.15;;;;;;;21.20;48.65;100359.19;5090473;28;20039;-26
2022/10/25 09:00:44;;;;;;;18.88;6.15;;;;;;;21.28;47.07;100364.00;5072846;28;20027;-27
2022/10/25 09:03:23;;;;;;;20.00;6.45;;;;;;;21.34;45.40;100374.81;5089675;28;20454;-29
2022/10/25 09:06:10;;;;;;;17.75;5.90;;;;;;;21.52;45.31;100366.03;5090688;28;20044;-27
2022/10/25 09:09:04;;;;;;;17.88;6.30;;;;;;;21.73;44.90;100352.25;5090894;28;20035;-28
2022/10/25 09:11:44;;;;;;;18.50;6.10;;;;;;;22.03;45.43;100364.72;5091127;28;20567;-26
2022/10/25 09:14:36;;;;;;;18.10;5.57;;;;;;;22.21;44.34;100363.16;5090917;28;20031;-27
2022/10/25 09:17:03;;;;;;;22.45;6.38;;;;;;;22.54;43.77;100360.63;5091139;28;20111;-26
2022/10/25 09:19:55;;;;;;;16.40;6.55;;;;;;;22.79;42.80;100363.00;5091070;28;20023;-30
2022/10/25 09:22:27;;;;;;;17.80;5.88;;;;;;;22.84;43.05;100346.63;5090252;28;20039;-31
2022/10/25 09:24:58;;;;;;;17.17;5.30;;;;;;;22.80;43.28;100356.47;5090725;28;20028;-27
2022/10/25 09:27:26;;;;;;;16.27;5.95;;;;;;;22.93;42.99;100344.03;5090673;28;20090;-26
2022/10/25 09:30:05;;;;;;;16.83;6.05;;;;;;;22.96;43.17;100321.69;5090606;28;20032;-28
2022/10/25 09:32:37;;;;;;;17.63;6.10;;;;;;;23.15;42.62;100321.69;5090470;28;20074;-27
2022/10/25 09:35:04;;;;;;;14.30;5.70;;;;;;;23.42;41.96;100325.63;5090757;28;20024;-29
2022/10/25 09:37:39;;;;;;;16.13;5.43;;;;;;;23.46;41.78;100337.53;5072233;28;20473;-27
2022/10/25 09:40:20;;;;;;;12.35;4.93;;;;;;;23.36;41.85;100314.00;5072389;28;20032;-27
2022/10/25 09:43:06;;;;;;;12.13;4.90;;;;;;;23.36;41.09;100313.19;5090350;28;20027;-32
2022/10/25 09:45:54;;;;;;;18.42;5.47;;;;;;;23.91;40.69;100307.88;5074308;28;20044;-27
2022/10/25 09:48:37;;;;;;;21.83;6.15;;;;;;;24.28;40.60;100300.56;5090315;28;20024;-26
2022/10/25 09:51:09;;;;;;;12.00;4.82;;;;;;;24.53;39.69;100314.81;5090517;28;20741;-27
2022/10/25 09:53:39;;;;;;;13.55;5.05;;;;;;;24.80;39.08;100283.91;5090565;28;20027;-27
2022/10/25 09:56:05;;;;;;;13.85;5.40;;;;;;;24.88;38.54;100296.81;5090038;28;20028;-30
2022/10/25 09:58:38;;;;;;;14.00;5.50;;;;;;;25.06;38.11;100275.91;5089678;28;20032;-27
2022/10/25 10:01:23;;;;;;;12.75;4.80;;;;;;;25.54;37.63;100282.63;5089848;28;20111;-27
2022/10/25 10:03:49;;;;;;;15.35;5.03;;;;;;;25.34;37.00;100284.78;5090105;28;20047;-28
2022/10/25 10:06:21;;;;;;;8.55;5.25;;;;;;;25.26;38.06;100286.34;5089681;28;20040;-28
2022/10/25 10:08:53;;;;;;;11.05;4.70;;;;;;;25.29;36.90;100273.19;5089357;28;20769;-28
2022/10/25 10:11:19;;;;;;;13.38;5.25;;;;;;;25.08;36.94;100281.88;5090077;28;20032;-26
2022/10/25 10:13:58;;;;;;;13.52;5.20;;;;;;;25.14;37.90;100266.97;5071615;28;20073;-31
2022/10/25 10:16:44;;;;;;;16.30;5.40;;;;;;;25.12;37.57;100274.66;5089528;28;20086;-30
2022/10/25 10:19:17;;;;;;;15.05;5.53;;;;;;;25.33;37.36;100263.25;5071314;28;20031;-28
2022/10/25 10:21:45;;;;;;;18.30;5.97;;;;;;;25.64;36.83;100258.59;5090114;28;20134;-28
2022/10/25 10:24:17;;;;;;;15.48;5.95;;;;;;;25.82;36.26;100253.19;5088338;28;20028;-26
2022/10/25 10:26:47;;;;;;;15.07;5.60;;;;;;;26.03;35.92;100265.19;5089779;28;20032;-27
2022/10/25 10:29:20;;;;;;;11.80;5.07;;;;;;;25.76;35.54;100262.66;5089682;28;20373;-27
2022/10/25 10:31:48;;;;;;;15.10;4.60;;;;;;;25.83;36.34;100252.06;5089405;28;20484;-29
2022/10/25 10:34:35;;;;;;;15.00;5.00;;;;;;;26.15;35.39;100255.53;5089373;28;20024;-26
2022/10/25 10:37:16;;;;;;;16.27;4.53;;;;;;;26.13;35.74;100252.31;5089466;28;20492;-27
2022/10/25 10:39:50;;;;;;;11.25;4.50;;;;;;;25.95;34.95;100246.00;5089223;28;20336;-26
2022/10/25 10:42:20;;;;;;;15.70;4.47;;;;;;;26.25;34.43;100236.09;5088765;28;20020;-27
2022/10/25 10:45:14;;;;;;;10.20;4.13;;;;;;;26.18;34.58;100252.19;5089248;28;20058;-27
2022/10/25 10:47:48;;;;;;;12.10;4.30;;;;;;;26.17;33.85;100247.84;5089120;28;20480;-27
2022/10/25 10:50:20;;;;;;;14.52;4.65;;;;;;;26.15;34.40;100244.59;5088830;28;20043;-26
2022/10/25 10:52:52;;;;;;;15.35;4.80;;;;;;;26.50;33.92;100240.00;5087730;28;20031;-26
2022/10/25 10:55:17;;;;;;;15.05;4.30;;;;;;;26.65;33.12;100241.47;5089602;28;20043;-27
2022/10/25 10:57:44;;;;;;;21.80;5.10;;;;;;;26.58;33.64;100241.13;5089182;28;20028;-27
2022/10/25 11:00:23;;;;;;;17.20;4.47;;;;;;;26.34;33.13;100236.94;5088702;28;20540;-27
2022/10/25 11:02:49;;;;;;;15.00;5.45;;;;;;;26.31;33.29;100234.81;5088991;28;20035;-27
2022/10/25 11:05:26;;;;;;;13.40;4.50;;;;;;;26.49;32.85;100237.56;5070445;28;20121;-29
2022/10/25 11:08:07;;;;;;;12.77;4.45;;;;;;;26.56;32.70;100243.34;5087543;28;20020;-27
2022/10/25 11:10:37;;;;;;;17.90;5.25;;;;;;;26.45;33.23;100235.47;5070351;28;20046;-30
2022/10/25 11:13:14;;;;;;;17.98;5.22;;;;;;;26.31;33.00;100214.88;5070498;28;20055;-31
2022/10/25 11:15:59;;;;;;;;;;;;;;;26.95;32.87;100227.88;5089297;28;20036;-26
2022/10/25 11:18:46;;;;;;;18.20;5.70;;;;;;;27.19;32.05;100222.69;5070191;28;20383;-27
2022/10/25 11:21:38;;;;;;;16.70;5.88;;;;;;;27.58;31.67;100215.34;5088243;28;20486;-27
2022/10/25 11:24:16;;;;;;;13.70;4.60;;;;;;;27.78;30.51;100229.41;5088626;28;20392;-27
2022/10/25 11:26:47;;;;;;;18.40;4.93;;;;;;;28.02;30.73;100231.53;5088462;28;20110;-27
2022/10/25 11:29:28;;;;;;;17.63;5.72;;;;;;;28.02;29.64;100223.31;5088643;28;20032;-26